sensor_id;sensor_type;location;lat;lon;timestamp;temperature;humidity
2042;DHT22;1026;51.460;7.252;2023-12-14T00:00:30;8.50;99.90
2042;DHT22;1026;51.460;7.252;2023-12-14T00:03:03;8.50;99.90
2042;DHT22;1026;51.460;7.252;2023-12-14T00:05:37;8.50;99.90
2042;DHT22;1026;51.460;7.252;2023-12-14T00:08:04;8.50;99.90
2042;DHT22;1026;51.460;7.252;2023-12-14T00:10:31;8.50;99.90
2042;DHT22;1026;51.460;7.252;2023-12-14T00:13:05;8.50;99.90
2042;DHT22;1026;51.460;7.252;2023-12-14T00:15:34;8.50;99.90
2042;DHT22;1026;51.460;7.252;2023-12-14T00:18:08;8.50;99.90
2042;DHT22;1026;51.460;7.252;2023-12-14T00:20:42;8.50;99.90
2042;DHT22;1026;51.460;7.252;2023-12-14T00:23:23;8.50;99.90
2042;DHT22;1026;51.460;7.252;2023-12-14T00:25:50;8.50;99.90
2042;DHT22;1026;51.460;7.252;2023-12-14T00:28:23;8.50;99.90
2042;DHT22;1026;51.460;7.252;2023-12-14T00:30:55;8.50;99.90
2042;DHT22;1026;51.460;7.252;2023-12-14T00:33:29;8.50;99.90
2042;DHT22;1026;51.460;7.252;2023-12-14T00:35:56;8.50;99.90
2042;DHT22;1026;51.460;7.252;2023-12-14T00:38:30;8.50;99.90
2042;DHT22;1026;51.460;7.252;2023-12-14T00:41:04;8.50;99.90
2042;DHT22;1026;51.460;7.252;2023-12-14T00:43:38;8.50;99.90
2042;DHT22;1026;51.460;7.252;2023-12-14T00:46:05;8.50;99.90
2042;DHT22;1026;51.460;7.252;2023-12-14T00:48:39;8.50;99.90
2042;DHT22;1026;51.460;7.252;2023-12-14T00:51:06;8.50;99.90
2042;DHT22;1026;51.460;7.252;2023-12-14T00:53:33;8.40;99.90
2042;DHT22;1026;51.460;7.252;2023-12-14T00:56:08;8.40;99.90
2042;DHT22;1026;51.460;7.252;2023-12-14T00:58:35;8.40;99.90
2042;DHT22;1026;51.460;7.252;2023-12-14T01:01:09;8.40;99.90
2042;DHT22;1026;51.460;7.252;2023-12-14T01:03:43;8.50;99.90
2042;DHT22;1026;51.460;7.252;2023-12-14T01:06:10;8.40;99.90
2042;DHT22;1026;51.460;7.252;2023-12-14T01:08:37;8.40;99.90
2042;DHT22;1026;51.460;7.252;2023-12-14T01:11:11;8.40;99.90
2042;DHT22;1026;51.460;7.252;2023-12-14T01:13:45;8.50;99.90
2042;DHT22;1026;51.460;7.252;2023-12-14T01:16:12;8.40;99.90
2042;DHT22;1026;51.460;7.252;2023-12-14T01:18:40;8.40;99.90
2042;DHT22;1026;51.460;7.252;2023-12-14T01:21:20;8.50;99.90
2042;DHT22;1026;51.460;7.252;2023-12-14T01:24:00;8.40;99.90
2042;DHT22;1026;51.460;7.252;2023-12-14T01:26:41;8.40;99.90
2042;DHT22;1026;51.460;7.252;2023-12-14T01:29:08;8.40;99.90
2042;DHT22;1026;51.460;7.252;2023-12-14T01:31:41;8.40;99.90
2042;DHT22;1026;51.460;7.252;2023-12-14T01:34:08;8.40;99.90
2042;DHT22;1026;51.460;7.252;2023-12-14T01:36:45;8.40;99.90
2042;DHT22;1026;51.460;7.252;2023-12-14T01:39:12;8.40;99.90
2042;DHT22;1026;51.460;7.252;2023-12-14T01:41:39;8.40;99.90
2042;DHT22;1026;51.460;7.252;2023-12-14T01:44:13;8.40;99.90
2042;DHT22;1026;51.460;7.252;2023-12-14T01:46:47;8.40;99.90
2042;DHT22;1026;51.460;7.252;2023-12-14T01:49:15;8.40;99.90
2042;DHT22;1026;51.460;7.252;2023-12-14T01:51:48;8.40;99.90
2042;DHT22;1026;51.460;7.252;2023-12-14T01:54:15;8.40;99.90
2042;DHT22;1026;51.460;7.252;2023-12-14T01:56:42;8.40;99.90
2042;DHT22;1026;51.460;7.252;2023-12-14T01:59:15;8.40;99.90
2042;DHT22;1026;51.460;7.252;2023-12-14T02:01:53;8.40;99.90
2042;DHT22;1026;51.460;7.252;2023-12-14T02:04:24;8.40;99.90
2042;DHT22;1026;51.460;7.252;2023-12-14T02:06:58;8.40;99.90
2042;DHT22;1026;51.460;7.252;2023-12-14T02:09:33;8.30;99.90
2042;DHT22;1026;51.460;7.252;2023-12-14T02:12:00;8.30;99.90
2042;DHT22;1026;51.460;7.252;2023-12-14T02:14:34;8.30;99.90
2042;DHT22;1026;51.460;7.252;2023-12-14T02:17:01;8.30;99.90
2042;DHT22;1026;51.460;7.252;2023-12-14T02:19:28;8.30;99.90
2042;DHT22;1026;51.460;7.252;2023-12-14T02:22:02;8.30;99.90
2042;DHT22;1026;51.460;7.252;2023-12-14T02:24:43;8.30;99.90
2042;DHT22;1026;51.460;7.252;2023-12-14T02:27:16;8.30;99.90
2042;DHT22;1026;51.460;7.252;2023-12-14T02:29:43;8.30;99.90
2042;DHT22;1026;51.460;7.252;2023-12-14T02:32:16;8.30;99.90
2042;DHT22;1026;51.460;7.252;2023-12-14T02:34:43;8.30;99.90
2042;DHT22;1026;51.460;7.252;2023-12-14T02:37:10;8.30;99.90
2042;DHT22;1026;51.460;7.252;2023-12-14T02:39:44;8.30;99.90
2042;DHT22;1026;51.460;7.252;2023-12-14T02:42:14;8.30;99.90
2042;DHT22;1026;51.460;7.252;2023-12-14T02:44:47;8.30;99.90
2042;DHT22;1026;51.460;7.252;2023-12-14T02:47:14;8.30;99.90
2042;DHT22;1026;51.460;7.252;2023-12-14T02:49:48;8.30;99.90
2042;DHT22;1026;51.460;7.252;2023-12-14T02:52:15;8.30;99.90
2042;DHT22;1026;51.460;7.252;2023-12-14T02:54:48;8.30;99.90
2042;DHT22;1026;51.460;7.252;2023-12-14T02:57:15;8.20;99.90
2042;DHT22;1026;51.460;7.252;2023-12-14T02:59:42;8.20;99.90
2042;DHT22;1026;51.460;7.252;2023-12-14T03:02:15;8.20;99.90
2042;DHT22;1026;51.460;7.252;2023-12-14T03:04:42;8.30;99.90
2042;DHT22;1026;51.460;7.252;2023-12-14T03:07:16;8.20;99.90
2042;DHT22;1026;51.460;7.252;2023-12-14T03:09:43;8.20;99.90
2042;DHT22;1026;51.460;7.252;2023-12-14T03:12:11;8.20;99.90
2042;DHT22;1026;51.460;7.252;2023-12-14T03:14:44;8.30;99.90
2042;DHT22;1026;51.460;7.252;2023-12-14T03:17:11;8.20;99.90
2042;DHT22;1026;51.460;7.252;2023-12-14T03:19:46;8.20;99.90
2042;DHT22;1026;51.460;7.252;2023-12-14T03:22:26;8.20;99.90
2042;DHT22;1026;51.460;7.252;2023-12-14T03:25:00;8.20;99.90
2042;DHT22;1026;51.460;7.252;2023-12-14T03:27:27;8.20;99.90
2042;DHT22;1026;51.460;7.252;2023-12-14T03:30:00;8.20;99.90
2042;DHT22;1026;51.460;7.252;2023-12-14T03:32:35;8.20;99.90
2042;DHT22;1026;51.460;7.252;2023-12-14T03:35:03;8.20;99.90
2042;DHT22;1026;51.460;7.252;2023-12-14T03:37:37;8.20;99.90
2042;DHT22;1026;51.460;7.252;2023-12-14T03:40:05;8.20;99.90
2042;DHT22;1026;51.460;7.252;2023-12-14T03:42:32;8.20;99.90
2042;DHT22;1026;51.460;7.252;2023-12-14T03:45:06;8.20;99.90
2042;DHT22;1026;51.460;7.252;2023-12-14T03:47:33;8.20;99.90
2042;DHT22;1026;51.460;7.252;2023-12-14T03:50:07;8.20;99.90
2042;DHT22;1026;51.460;7.252;2023-12-14T03:52:36;8.10;99.90
2042;DHT22;1026;51.460;7.252;2023-12-14T03:55:03;8.20;99.90
2042;DHT22;1026;51.460;7.252;2023-12-14T03:57:37;8.20;99.90
2042;DHT22;1026;51.460;7.252;2023-12-14T04:00:12;8.10;99.90
2042;DHT22;1026;51.460;7.252;2023-12-14T04:02:45;8.10;99.90
2042;DHT22;1026;51.460;7.252;2023-12-14T04:05:12;8.20;99.90
2042;DHT22;1026;51.460;7.252;2023-12-14T04:07:45;8.20;99.90
2042;DHT22;1026;51.460;7.252;2023-12-14T04:10:13;8.10;99.90
2042;DHT22;1026;51.460;7.252;2023-12-14T04:12:46;8.10;99.90
2042;DHT22;1026;51.460;7.252;2023-12-14T04:15:13;8.20;99.90
2042;DHT22;1026;51.460;7.252;2023-12-14T04:17:40;8.10;99.90
2042;DHT22;1026;51.460;7.252;2023-12-14T04:20:14;8.10;99.90
2042;DHT22;1026;51.460;7.252;2023-12-14T04:22:48;8.10;99.90
2042;DHT22;1026;51.460;7.252;2023-12-14T04:25:21;8.10;99.90
2042;DHT22;1026;51.460;7.252;2023-12-14T04:27:55;8.20;99.90
2042;DHT22;1026;51.460;7.252;2023-12-14T04:30:22;8.10;99.90
2042;DHT22;1026;51.460;7.252;2023-12-14T04:32:49;8.10;99.90
2042;DHT22;1026;51.460;7.252;2023-12-14T04:35:23;8.10;99.90
2042;DHT22;1026;51.460;7.252;2023-12-14T04:37:57;8.10;99.90
2042;DHT22;1026;51.460;7.252;2023-12-14T04:40:24;8.10;99.90
2042;DHT22;1026;51.460;7.252;2023-12-14T04:42:57;8.10;99.90
2042;DHT22;1026;51.460;7.252;2023-12-14T04:45:25;8.10;99.90
2042;DHT22;1026;51.460;7.252;2023-12-14T04:47:52;8.10;99.90
2042;DHT22;1026;51.460;7.252;2023-12-14T04:50:26;8.10;99.90
2042;DHT22;1026;51.460;7.252;2023-12-14T04:52:59;8.10;99.90
2042;DHT22;1026;51.460;7.252;2023-12-14T04:55:33;8.10;99.90
2042;DHT22;1026;51.460;7.252;2023-12-14T04:58:01;8.10;99.90
2042;DHT22;1026;51.460;7.252;2023-12-14T05:00:28;8.10;99.90
2042;DHT22;1026;51.460;7.252;2023-12-14T05:03:01;8.20;99.90
2042;DHT22;1026;51.460;7.252;2023-12-14T05:05:28;8.00;99.90
2042;DHT22;1026;51.460;7.252;2023-12-14T05:08:02;8.00;99.90
2042;DHT22;1026;51.460;7.252;2023-12-14T05:10:30;8.00;99.90
2042;DHT22;1026;51.460;7.252;2023-12-14T05:13:03;8.00;99.90
2042;DHT22;1026;51.460;7.252;2023-12-14T05:15:30;8.00;99.90
2042;DHT22;1026;51.460;7.252;2023-12-14T05:17:57;8.00;99.90
2042;DHT22;1026;51.460;7.252;2023-12-14T05:20:37;8.00;99.90
2042;DHT22;1026;51.460;7.252;2023-12-14T05:23:10;8.00;99.90
2042;DHT22;1026;51.460;7.252;2023-12-14T05:25:44;8.00;99.90
2042;DHT22;1026;51.460;7.252;2023-12-14T05:28:17;8.00;99.90
2042;DHT22;1026;51.460;7.252;2023-12-14T05:30:50;8.00;99.90
2042;DHT22;1026;51.460;7.252;2023-12-14T05:33:23;8.00;99.90
2042;DHT22;1026;51.460;7.252;2023-12-14T05:35:56;8.00;99.90
2042;DHT22;1026;51.460;7.252;2023-12-14T05:38:23;8.00;99.90
2042;DHT22;1026;51.460;7.252;2023-12-14T05:40:57;8.00;99.90
2042;DHT22;1026;51.460;7.252;2023-12-14T05:43:24;8.00;99.90
2042;DHT22;1026;51.460;7.252;2023-12-14T05:45:51;8.00;99.90
2042;DHT22;1026;51.460;7.252;2023-12-14T05:48:24;8.00;99.90
2042;DHT22;1026;51.460;7.252;2023-12-14T05:50:53;8.00;99.90
2042;DHT22;1026;51.460;7.252;2023-12-14T05:53:21;7.90;99.90
2042;DHT22;1026;51.460;7.252;2023-12-14T05:55:54;8.00;99.90
2042;DHT22;1026;51.460;7.252;2023-12-14T05:58:22;8.00;99.90
2042;DHT22;1026;51.460;7.252;2023-12-14T06:00:49;7.90;99.90
2042;DHT22;1026;51.460;7.252;2023-12-14T06:03:22;7.90;99.90
2042;DHT22;1026;51.460;7.252;2023-12-14T06:05:56;8.00;99.90
2042;DHT22;1026;51.460;7.252;2023-12-14T06:08:24;7.90;99.90
2042;DHT22;1026;51.460;7.252;2023-12-14T06:10:57;8.00;99.90
2042;DHT22;1026;51.460;7.252;2023-12-14T06:13:24;7.90;99.90
2042;DHT22;1026;51.460;7.252;2023-12-14T06:15:51;7.90;99.90
2042;DHT22;1026;51.460;7.252;2023-12-14T06:18:24;7.90;99.90
2042;DHT22;1026;51.460;7.252;2023-12-14T06:20:58;7.90;99.90
2042;DHT22;1026;51.460;7.252;2023-12-14T06:23:38;7.90;99.90
2042;DHT22;1026;51.460;7.252;2023-12-14T06:26:16;7.90;99.90
2042;DHT22;1026;51.460;7.252;2023-12-14T06:28:44;7.90;99.90
2042;DHT22;1026;51.460;7.252;2023-12-14T06:31:14;7.90;99.90
2042;DHT22;1026;51.460;7.252;2023-12-14T06:33:48;7.90;99.90
2042;DHT22;1026;51.460;7.252;2023-12-14T06:36:26;7.90;99.90
2042;DHT22;1026;51.460;7.252;2023-12-14T06:39:02;7.90;99.90
2042;DHT22;1026;51.460;7.252;2023-12-14T06:41:30;7.90;99.90
2042;DHT22;1026;51.460;7.252;2023-12-14T06:43:57;7.90;99.90
2042;DHT22;1026;51.460;7.252;2023-12-14T06:46:30;7.90;99.90
2042;DHT22;1026;51.460;7.252;2023-12-14T06:49:04;7.90;99.90
2042;DHT22;1026;51.460;7.252;2023-12-14T06:51:31;7.90;99.90
2042;DHT22;1026;51.460;7.252;2023-12-14T06:53:58;7.80;99.90
2042;DHT22;1026;51.460;7.252;2023-12-14T06:56:31;7.80;99.90
2042;DHT22;1026;51.460;7.252;2023-12-14T06:59:05;7.80;99.90
2042;DHT22;1026;51.460;7.252;2023-12-14T07:01:33;7.80;99.90
2042;DHT22;1026;51.460;7.252;2023-12-14T07:04:00;7.80;99.90
2042;DHT22;1026;51.460;7.252;2023-12-14T07:06:35;7.90;99.90
2042;DHT22;1026;51.460;7.252;2023-12-14T07:09:02;7.90;99.90
2042;DHT22;1026;51.460;7.252;2023-12-14T07:11:37;7.80;99.90
2042;DHT22;1026;51.460;7.252;2023-12-14T07:14:11;7.80;99.90
2042;DHT22;1026;51.460;7.252;2023-12-14T07:16:38;7.80;99.90
2042;DHT22;1026;51.460;7.252;2023-12-14T07:19:11;7.80;99.90
2042;DHT22;1026;51.460;7.252;2023-12-14T07:21:45;7.80;99.90
2042;DHT22;1026;51.460;7.252;2023-12-14T07:24:25;7.80;99.90
2042;DHT22;1026;51.460;7.252;2023-12-14T07:26:52;7.80;99.90
2042;DHT22;1026;51.460;7.252;2023-12-14T07:29:20;7.80;99.90
2042;DHT22;1026;51.460;7.252;2023-12-14T07:31:54;7.80;99.90
2042;DHT22;1026;51.460;7.252;2023-12-14T07:34:21;7.80;99.90
2042;DHT22;1026;51.460;7.252;2023-12-14T07:36:48;7.80;99.90
2042;DHT22;1026;51.460;7.252;2023-12-14T07:39:22;7.80;99.90
2042;DHT22;1026;51.460;7.252;2023-12-14T07:41:49;7.80;99.90
2042;DHT22;1026;51.460;7.252;2023-12-14T07:44:22;7.70;99.90
2042;DHT22;1026;51.460;7.252;2023-12-14T07:46:52;7.80;99.90
2042;DHT22;1026;51.460;7.252;2023-12-14T07:49:26;7.80;99.90
2042;DHT22;1026;51.460;7.252;2023-12-14T07:51:53;7.80;99.90
2042;DHT22;1026;51.460;7.252;2023-12-14T07:54:20;7.80;99.90
2042;DHT22;1026;51.460;7.252;2023-12-14T07:56:54;7.80;99.90
2042;DHT22;1026;51.460;7.252;2023-12-14T07:59:27;7.80;99.90
2042;DHT22;1026;51.460;7.252;2023-12-14T08:02:01;7.80;99.90
2042;DHT22;1026;51.460;7.252;2023-12-14T08:04:28;7.70;99.90
2042;DHT22;1026;51.460;7.252;2023-12-14T08:06:55;7.70;99.90
2042;DHT22;1026;51.460;7.252;2023-12-14T08:09:30;7.70;99.90
2042;DHT22;1026;51.460;7.252;2023-12-14T08:12:04;7.70;99.90
2042;DHT22;1026;51.460;7.252;2023-12-14T08:14:35;7.70;99.90
2042;DHT22;1026;51.460;7.252;2023-12-14T08:17:11;7.70;99.90
2042;DHT22;1026;51.460;7.252;2023-12-14T08:19:38;7.70;99.90
2042;DHT22;1026;51.460;7.252;2023-12-14T08:22:12;7.70;99.90
2042;DHT22;1026;51.460;7.252;2023-12-14T08:24:46;7.70;99.90
2042;DHT22;1026;51.460;7.252;2023-12-14T08:27:13;7.70;99.90
2042;DHT22;1026;51.460;7.252;2023-12-14T08:29:40;7.70;99.90
2042;DHT22;1026;51.460;7.252;2023-12-14T08:32:13;7.70;99.90
2042;DHT22;1026;51.460;7.252;2023-12-14T08:34:41;7.70;99.90
2042;DHT22;1026;51.460;7.252;2023-12-14T08:37:08;7.70;99.90
2042;DHT22;1026;51.460;7.252;2023-12-14T08:39:42;7.70;99.90
2042;DHT22;1026;51.460;7.252;2023-12-14T08:42:09;7.70;99.90
2042;DHT22;1026;51.460;7.252;2023-12-14T08:44:45;7.70;99.90
2042;DHT22;1026;51.460;7.252;2023-12-14T08:47:19;7.70;99.90
2042;DHT22;1026;51.460;7.252;2023-12-14T08:49:46;7.60;99.90
2042;DHT22;1026;51.460;7.252;2023-12-14T08:52:13;7.70;99.90
2042;DHT22;1026;51.460;7.252;2023-12-14T08:54:48;7.70;99.90
2042;DHT22;1026;51.460;7.252;2023-12-14T08:57:15;7.60;99.90
2042;DHT22;1026;51.460;7.252;2023-12-14T08:59:48;7.60;99.90
2042;DHT22;1026;51.460;7.252;2023-12-14T09:02:15;7.60;99.90
2042;DHT22;1026;51.460;7.252;2023-12-14T09:04:42;7.70;99.90
2042;DHT22;1026;51.460;7.252;2023-12-14T09:07:15;7.60;99.90
2042;DHT22;1026;51.460;7.252;2023-12-14T09:09:49;7.60;99.90
2042;DHT22;1026;51.460;7.252;2023-12-14T09:12:16;7.60;99.90
2042;DHT22;1026;51.460;7.252;2023-12-14T09:14:43;7.60;99.90
2042;DHT22;1026;51.460;7.252;2023-12-14T09:17:16;7.60;99.90
2042;DHT22;1026;51.460;7.252;2023-12-14T09:19:44;7.60;99.90
2042;DHT22;1026;51.460;7.252;2023-12-14T09:22:11;7.60;99.90
2042;DHT22;1026;51.460;7.252;2023-12-14T09:24:58;7.60;99.90
2042;DHT22;1026;51.460;7.252;2023-12-14T09:27:25;7.60;99.90
2042;DHT22;1026;51.460;7.252;2023-12-14T09:29:59;7.60;99.90
2042;DHT22;1026;51.460;7.252;2023-12-14T09:32:26;7.60;99.90
2042;DHT22;1026;51.460;7.252;2023-12-14T09:34:53;7.60;99.90
2042;DHT22;1026;51.460;7.252;2023-12-14T09:37:30;7.60;99.90
2042;DHT22;1026;51.460;7.252;2023-12-14T09:39:57;7.60;99.90
2042;DHT22;1026;51.460;7.252;2023-12-14T09:42:24;7.60;99.90
2042;DHT22;1026;51.460;7.252;2023-12-14T09:44:58;7.60;99.90
2042;DHT22;1026;51.460;7.252;2023-12-14T09:47:25;7.50;99.90
2042;DHT22;1026;51.460;7.252;2023-12-14T09:50:00;7.60;99.90
2042;DHT22;1026;51.460;7.252;2023-12-14T09:52:27;7.60;99.90
2042;DHT22;1026;51.460;7.252;2023-12-14T09:54:54;7.50;99.90
2042;DHT22;1026;51.460;7.252;2023-12-14T09:57:28;7.60;99.90
2042;DHT22;1026;51.460;7.252;2023-12-14T09:59:55;7.60;99.90
2042;DHT22;1026;51.460;7.252;2023-12-14T10:02:29;7.60;99.90
2042;DHT22;1026;51.460;7.252;2023-12-14T10:04:56;7.60;99.90
2042;DHT22;1026;51.460;7.252;2023-12-14T10:07:24;7.60;99.90
2042;DHT22;1026;51.460;7.252;2023-12-14T10:10:11;7.50;99.90
2042;DHT22;1026;51.460;7.252;2023-12-14T10:12:53;7.60;99.90
2042;DHT22;1026;51.460;7.252;2023-12-14T10:15:27;7.50;99.90
2042;DHT22;1026;51.460;7.252;2023-12-14T10:17:55;7.50;99.90
2042;DHT22;1026;51.460;7.252;2023-12-14T10:20:23;7.50;99.90
2042;DHT22;1026;51.460;7.252;2023-12-14T10:22:57;7.50;99.90
2042;DHT22;1026;51.460;7.252;2023-12-14T10:25:36;7.50;99.90
2042;DHT22;1026;51.460;7.252;2023-12-14T10:28:13;7.50;99.90
2042;DHT22;1026;51.460;7.252;2023-12-14T10:30:41;7.60;99.90
2042;DHT22;1026;51.460;7.252;2023-12-14T10:33:15;7.50;99.90
2042;DHT22;1026;51.460;7.252;2023-12-14T10:35:43;7.50;99.90
2042;DHT22;1026;51.460;7.252;2023-12-14T10:38:19;7.50;99.90
2042;DHT22;1026;51.460;7.252;2023-12-14T10:40:47;7.50;99.90
2042;DHT22;1026;51.460;7.252;2023-12-14T10:43:15;7.50;99.90
2042;DHT22;1026;51.460;7.252;2023-12-14T10:46:10;7.50;99.90
2042;DHT22;1026;51.460;7.252;2023-12-14T10:48:45;7.50;99.90
2042;DHT22;1026;51.460;7.252;2023-12-14T10:51:22;7.50;99.90
2042;DHT22;1026;51.460;7.252;2023-12-14T10:53:50;7.50;99.90
2042;DHT22;1026;51.460;7.252;2023-12-14T10:56:25;7.50;99.90
2042;DHT22;1026;51.460;7.252;2023-12-14T10:58:55;7.50;99.90
2042;DHT22;1026;51.460;7.252;2023-12-14T11:01:24;7.50;99.90
2042;DHT22;1026;51.460;7.252;2023-12-14T11:03:59;7.50;99.90
2042;DHT22;1026;51.460;7.252;2023-12-14T11:06:36;7.50;99.90
2042;DHT22;1026;51.460;7.252;2023-12-14T11:09:11;7.50;99.90
2042;DHT22;1026;51.460;7.252;2023-12-14T11:11:56;7.50;99.90
2042;DHT22;1026;51.460;7.252;2023-12-14T11:14:32;7.50;99.90
2042;DHT22;1026;51.460;7.252;2023-12-14T11:17:06;7.50;99.90
2042;DHT22;1026;51.460;7.252;2023-12-14T11:19:40;7.50;99.90
2042;DHT22;1026;51.460;7.252;2023-12-14T11:22:22;7.50;99.90
2042;DHT22;1026;51.460;7.252;2023-12-14T11:25:10;7.50;99.90
2042;DHT22;1026;51.460;7.252;2023-12-14T11:27:50;7.50;99.90
2042;DHT22;1026;51.460;7.252;2023-12-14T11:30:24;7.50;99.90
2042;DHT22;1026;51.460;7.252;2023-12-14T11:32:53;7.50;99.90
2042;DHT22;1026;51.460;7.252;2023-12-14T11:35:27;7.50;99.90
2042;DHT22;1026;51.460;7.252;2023-12-14T11:37:55;7.50;99.90
2042;DHT22;1026;51.460;7.252;2023-12-14T11:40:31;7.50;99.90
2042;DHT22;1026;51.460;7.252;2023-12-14T11:42:59;7.50;99.90
2042;DHT22;1026;51.460;7.252;2023-12-14T11:45:26;7.50;99.90
2042;DHT22;1026;51.460;7.252;2023-12-14T11:47:59;7.50;99.90
2042;DHT22;1026;51.460;7.252;2023-12-14T11:50:28;7.50;99.90
2042;DHT22;1026;51.460;7.252;2023-12-14T11:52:57;7.50;99.90
2042;DHT22;1026;51.460;7.252;2023-12-14T11:55:31;7.50;99.90
2042;DHT22;1026;51.460;7.252;2023-12-14T11:57:59;7.50;99.90
2042;DHT22;1026;51.460;7.252;2023-12-14T12:00:34;7.50;99.90
2042;DHT22;1026;51.460;7.252;2023-12-14T12:03:19;7.50;99.90
2042;DHT22;1026;51.460;7.252;2023-12-14T12:05:50;7.50;99.90
2042;DHT22;1026;51.460;7.252;2023-12-14T12:08:24;7.50;99.90
2042;DHT22;1026;51.460;7.252;2023-12-14T12:10:51;7.50;99.90
2042;DHT22;1026;51.460;7.252;2023-12-14T12:13:25;7.50;99.90
2042;DHT22;1026;51.460;7.252;2023-12-14T12:15:59;7.50;99.90
2042;DHT22;1026;51.460;7.252;2023-12-14T12:18:26;7.50;99.90
2042;DHT22;1026;51.460;7.252;2023-12-14T12:21:04;7.50;99.90
2042;DHT22;1026;51.460;7.252;2023-12-14T12:23:37;7.50;99.90
2042;DHT22;1026;51.460;7.252;2023-12-14T12:26:10;7.50;99.90
2042;DHT22;1026;51.460;7.252;2023-12-14T12:28:37;7.50;99.90
2042;DHT22;1026;51.460;7.252;2023-12-14T12:31:11;7.50;99.90
2042;DHT22;1026;51.460;7.252;2023-12-14T12:33:38;7.50;99.90
2042;DHT22;1026;51.460;7.252;2023-12-14T12:36:06;7.50;99.90
2042;DHT22;1026;51.460;7.252;2023-12-14T12:38:40;7.40;99.90
2042;DHT22;1026;51.460;7.252;2023-12-14T12:41:07;7.40;99.90
2042;DHT22;1026;51.460;7.252;2023-12-14T12:43:41;7.40;99.90
2042;DHT22;1026;51.460;7.252;2023-12-14T12:46:08;7.50;99.90
2042;DHT22;1026;51.460;7.252;2023-12-14T12:48:42;7.50;99.90
2042;DHT22;1026;51.460;7.252;2023-12-14T12:51:15;7.50;99.90
2042;DHT22;1026;51.460;7.252;2023-12-14T12:53:43;7.50;99.90
2042;DHT22;1026;51.460;7.252;2023-12-14T12:56:13;7.50;99.90
2042;DHT22;1026;51.460;7.252;2023-12-14T12:58:46;7.40;99.90
2042;DHT22;1026;51.460;7.252;2023-12-14T13:01:13;7.50;99.90
2042;DHT22;1026;51.460;7.252;2023-12-14T13:03:40;7.50;99.90
2042;DHT22;1026;51.460;7.252;2023-12-14T13:06:14;7.50;99.90
2042;DHT22;1026;51.460;7.252;2023-12-14T13:08:41;7.40;99.90
2042;DHT22;1026;51.460;7.252;2023-12-14T13:11:16;7.50;99.90
2042;DHT22;1026;51.460;7.252;2023-12-14T13:13:43;7.50;99.90
2042;DHT22;1026;51.460;7.252;2023-12-14T13:16:17;7.40;99.90
2042;DHT22;1026;51.460;7.252;2023-12-14T13:18:44;7.40;99.90
2042;DHT22;1026;51.460;7.252;2023-12-14T13:21:25;7.40;99.90
2042;DHT22;1026;51.460;7.252;2023-12-14T13:24:07;7.40;99.90
2042;DHT22;1026;51.460;7.252;2023-12-14T13:26:41;7.40;99.90
2042;DHT22;1026;51.460;7.252;2023-12-14T13:29:08;7.40;99.90
2042;DHT22;1026;51.460;7.252;2023-12-14T13:31:35;7.40;99.90
2042;DHT22;1026;51.460;7.252;2023-12-14T13:34:09;7.40;99.90
2042;DHT22;1026;51.460;7.252;2023-12-14T13:36:43;7.40;99.90
2042;DHT22;1026;51.460;7.252;2023-12-14T13:39:10;7.40;99.90
2042;DHT22;1026;51.460;7.252;2023-12-14T13:41:45;7.40;99.90
2042;DHT22;1026;51.460;7.252;2023-12-14T13:44:17;7.50;99.90
2042;DHT22;1026;51.460;7.252;2023-12-14T13:46:44;7.40;99.90
2042;DHT22;1026;51.460;7.252;2023-12-14T13:49:18;7.40;99.90
2042;DHT22;1026;51.460;7.252;2023-12-14T13:51:53;7.40;99.90
2042;DHT22;1026;51.460;7.252;2023-12-14T13:54:21;7.50;99.90
2042;DHT22;1026;51.460;7.252;2023-12-14T13:56:48;7.40;99.90
2042;DHT22;1026;51.460;7.252;2023-12-14T13:59:21;7.40;99.90
2042;DHT22;1026;51.460;7.252;2023-12-14T14:01:48;7.40;99.90
2042;DHT22;1026;51.460;7.252;2023-12-14T14:04:18;7.40;99.90
2042;DHT22;1026;51.460;7.252;2023-12-14T14:06:53;7.40;99.90
2042;DHT22;1026;51.460;7.252;2023-12-14T14:09:27;7.40;99.90
2042;DHT22;1026;51.460;7.252;2023-12-14T14:11:55;7.40;99.90
2042;DHT22;1026;51.460;7.252;2023-12-14T14:14:22;7.40;99.90
2042;DHT22;1026;51.460;7.252;2023-12-14T14:16:56;7.40;99.90
2042;DHT22;1026;51.460;7.252;2023-12-14T14:19:23;7.40;99.90
2042;DHT22;1026;51.460;7.252;2023-12-14T14:22:04;7.50;99.90
2042;DHT22;1026;51.460;7.252;2023-12-14T14:24:47;7.50;99.90
2042;DHT22;1026;51.460;7.252;2023-12-14T14:27:20;7.40;99.90
2042;DHT22;1026;51.460;7.252;2023-12-14T14:29:54;7.40;99.90
2042;DHT22;1026;51.460;7.252;2023-12-14T14:32:23;7.40;99.90
2042;DHT22;1026;51.460;7.252;2023-12-14T14:34:50;7.40;99.90
2042;DHT22;1026;51.460;7.252;2023-12-14T14:37:24;7.40;99.90
2042;DHT22;1026;51.460;7.252;2023-12-14T14:39:58;7.40;99.90
2042;DHT22;1026;51.460;7.252;2023-12-14T14:42:25;7.40;99.90
2042;DHT22;1026;51.460;7.252;2023-12-14T14:44:59;7.40;99.90
2042;DHT22;1026;51.460;7.252;2023-12-14T14:47:26;7.40;99.90
2042;DHT22;1026;51.460;7.252;2023-12-14T14:49:54;7.40;99.90
2042;DHT22;1026;51.460;7.252;2023-12-14T14:52:34;7.40;99.90
2042;DHT22;1026;51.460;7.252;2023-12-14T14:55:01;7.40;99.90
2042;DHT22;1026;51.460;7.252;2023-12-14T14:57:35;7.40;99.90
2042;DHT22;1026;51.460;7.252;2023-12-14T15:00:09;7.40;99.90
2042;DHT22;1026;51.460;7.252;2023-12-14T15:02:36;7.40;99.90
2042;DHT22;1026;51.460;7.252;2023-12-14T15:05:10;7.30;99.90
2042;DHT22;1026;51.460;7.252;2023-12-14T15:07:37;7.40;99.90
2042;DHT22;1026;51.460;7.252;2023-12-14T15:10:11;7.30;99.90
2042;DHT22;1026;51.460;7.252;2023-12-14T15:12:38;7.30;99.90
2042;DHT22;1026;51.460;7.252;2023-12-14T15:15:06;7.30;99.90
2042;DHT22;1026;51.460;7.252;2023-12-14T15:17:40;7.30;99.90
2042;DHT22;1026;51.460;7.252;2023-12-14T15:20:08;7.40;99.90
2042;DHT22;1026;51.460;7.252;2023-12-14T15:22:48;7.30;99.90
2042;DHT22;1026;51.460;7.252;2023-12-14T15:25:22;7.30;99.90
2042;DHT22;1026;51.460;7.252;2023-12-14T15:28:02;7.30;99.90
2042;DHT22;1026;51.460;7.252;2023-12-14T15:30:29;7.30;99.90
2042;DHT22;1026;51.460;7.252;2023-12-14T15:33:03;7.30;99.90
2042;DHT22;1026;51.460;7.252;2023-12-14T15:35:36;7.30;99.90
2042;DHT22;1026;51.460;7.252;2023-12-14T15:38:09;7.30;99.90
2042;DHT22;1026;51.460;7.252;2023-12-14T15:40:42;7.20;99.90
2042;DHT22;1026;51.460;7.252;2023-12-14T15:43:16;7.20;99.90
2042;DHT22;1026;51.460;7.252;2023-12-14T15:45:50;7.20;99.90
2042;DHT22;1026;51.460;7.252;2023-12-14T15:48:17;7.20;99.90
2042;DHT22;1026;51.460;7.252;2023-12-14T15:50:51;7.30;99.90
2042;DHT22;1026;51.460;7.252;2023-12-14T15:53:18;7.20;99.90
2042;DHT22;1026;51.460;7.252;2023-12-14T15:55:45;7.30;99.90
2042;DHT22;1026;51.460;7.252;2023-12-14T15:58:19;7.30;99.90
2042;DHT22;1026;51.460;7.252;2023-12-14T16:00:46;7.30;99.90
2042;DHT22;1026;51.460;7.252;2023-12-14T16:03:13;7.30;99.90
2042;DHT22;1026;51.460;7.252;2023-12-14T16:05:47;7.20;99.90
2042;DHT22;1026;51.460;7.252;2023-12-14T16:08:14;7.20;99.90
2042;DHT22;1026;51.460;7.252;2023-12-14T16:10:49;7.20;99.90
2042;DHT22;1026;51.460;7.252;2023-12-14T16:13:18;7.20;99.90
2042;DHT22;1026;51.460;7.252;2023-12-14T16:15:51;7.20;99.90
2042;DHT22;1026;51.460;7.252;2023-12-14T16:18:24;7.20;99.90
2042;DHT22;1026;51.460;7.252;2023-12-14T16:21:05;7.30;99.90
2042;DHT22;1026;51.460;7.252;2023-12-14T16:23:45;7.30;99.90
2042;DHT22;1026;51.460;7.252;2023-12-14T16:26:19;7.20;99.90
2042;DHT22;1026;51.460;7.252;2023-12-14T16:28:52;7.20;99.90
2042;DHT22;1026;51.460;7.252;2023-12-14T16:31:19;7.20;99.90
2042;DHT22;1026;51.460;7.252;2023-12-14T16:33:53;7.20;99.90
2042;DHT22;1026;51.460;7.252;2023-12-14T16:36:20;7.20;99.90
2042;DHT22;1026;51.460;7.252;2023-12-14T16:38:54;7.20;99.90
2042;DHT22;1026;51.460;7.252;2023-12-14T16:41:21;7.20;99.90
2042;DHT22;1026;51.460;7.252;2023-12-14T16:43:48;7.20;99.90